Antrim, United Kingdom
Current Conditions -  °F | °C
As of 12:20 PM on Monday 26 Jan 2015 (Local Time) from EGAA Reporting Station
Few Clouds Few Clouds  
Wind Chill: 36°   Ceiling: Unl
Heat Index: 43°   Visibility: 6mi
Dew Point: 39°   Wind: 14mph
Humidity: 87%   Direction: 270°W
Pressure: 30.24"   Gusts: NA
Location:  54.7°N, 6.2°W
Report Text: EGAA 261220Z 27012KT 9999 FEW028 06/04 Q1024
Loading
Personal Weather Stations






























Interactive Weather Map New forecast layout! Learn more

10-Day Weather Forecast

Advertisements
Track Severe Weather on mobile